Caldicot, United Kingdom
Current Conditions -  °F | °C
As of 8:50 PM on Tuesday 27 Jan 2015 (Local Time) from EGGD Reporting Station
Broken Clouds Broken Clouds  
Wind Chill: 35°   Ceiling: 600
Heat Index: 41°   Visibility: 6mi
Dew Point: 39°   Wind: 9mph
Humidity: 93%   Direction: 230°SW
Pressure: 30.18"   Gusts: NA
Location:  51.59°N, 2.76°W
Report Text: EGGD 272050Z 23008KT 9999 BKN006 05/04 Q1022
Loading
Personal Weather Stations






























Interactive Weather Map New forecast layout! Learn more

10-Day Weather Forecast

Advertisements
Track Severe Weather on mobile